createdAt,value
2023-12-04T00:02:28.858Z,-5.06
2023-12-04T00:06:31.814Z,-5.05
2023-12-04T00:10:34.664Z,-5.03
2023-12-04T00:14:40.025Z,-5.01
2023-12-04T00:18:43.050Z,-4.99
2023-12-04T00:22:46.081Z,-5.01
2023-12-04T00:26:49.094Z,-5.00
2023-12-04T00:30:53.359Z,-5.00
2023-12-04T00:34:56.370Z,-4.99
2023-12-04T00:38:59.267Z,-4.97
2023-12-04T00:43:02.412Z,-4.98
2023-12-04T00:47:06.959Z,-4.97
2023-12-04T00:51:12.580Z,-4.98
2023-12-04T00:55:15.966Z,-4.99
2023-12-04T00:59:18.866Z,-5.01
2023-12-04T01:03:23.187Z,-5.01
2023-12-04T01:07:26.107Z,-5.00
2023-12-04T01:11:29.156Z,-4.97
2023-12-04T01:15:32.072Z,-4.95
2023-12-04T01:19:36.642Z,-4.99
2023-12-04T01:23:39.673Z,-5.03
2023-12-04T01:27:42.775Z,-5.04
2023-12-04T01:31:45.973Z,-5.04
2023-12-04T01:35:50.235Z,-5.08
2023-12-04T01:39:53.203Z,-5.05
2023-12-04T01:43:56.119Z,-5.04
2023-12-04T01:48:00.249Z,-5.02
2023-12-04T01:52:06.106Z,-5.02
2023-12-04T01:56:12.416Z,-4.98
2023-12-04T02:00:16.461Z,-4.92
2023-12-04T02:04:19.662Z,-4.91
2023-12-04T02:08:24.328Z,-4.91
2023-12-04T02:12:27.909Z,-4.88
2023-12-04T02:16:33.080Z,-4.86
2023-12-04T02:20:36.557Z,-4.85
2023-12-04T02:24:41.105Z,-4.81
2023-12-04T02:28:48.468Z,-4.79
2023-12-04T02:32:53.218Z,-4.78
2023-12-04T02:36:56.742Z,-4.77
2023-12-04T02:41:01.096Z,-4.75
2023-12-04T02:45:04.365Z,-4.76
2023-12-04T02:49:08.536Z,-4.81
2023-12-04T02:53:11.414Z,-4.79
2023-12-04T02:57:15.797Z,-4.76
2023-12-04T03:01:18.861Z,-4.76
2023-12-04T03:05:21.881Z,-4.78
2023-12-04T03:09:47.463Z,-4.76
2023-12-04T03:13:49.377Z,-4.79
2023-12-04T03:17:52.660Z,-4.79
2023-12-04T03:21:55.856Z,-4.78
2023-12-04T03:25:58.798Z,-4.76
2023-12-04T03:30:04.041Z,-4.76
2023-12-04T03:34:07.373Z,-4.76
2023-12-04T03:38:10.257Z,-4.76
2023-12-04T03:42:13.135Z,-4.77
2023-12-04T03:46:19.157Z,-4.74
2023-12-04T03:50:22.234Z,-4.72
2023-12-04T03:54:25.106Z,-4.71
2023-12-04T03:58:28.311Z,-4.70
2023-12-04T04:02:32.625Z,-4.67
2023-12-04T04:06:35.982Z,-4.65
2023-12-04T04:10:39.204Z,-4.63
2023-12-04T04:14:42.356Z,-4.60
2023-12-04T04:18:46.695Z,-4.59
2023-12-04T04:22:50.417Z,-4.57
2023-12-04T04:26:53.470Z,-4.55
2023-12-04T04:30:56.471Z,-4.51
2023-12-04T04:35:01.215Z,-4.47
2023-12-04T04:39:04.455Z,-4.42
2023-12-04T04:43:09.670Z,-4.39
2023-12-04T04:47:12.836Z,-4.38
2023-12-04T04:51:17.118Z,-4.34
2023-12-04T04:55:46.162Z,-4.34
2023-12-04T04:59:43.033Z,-4.36
2023-12-04T05:03:46.206Z,-4.32
2023-12-04T05:07:50.471Z,-4.29
2023-12-04T05:11:53.682Z,-4.25
2023-12-04T05:15:56.644Z,-4.22
2023-12-04T05:20:00.245Z,-4.20
2023-12-04T05:24:04.935Z,-4.22
2023-12-04T05:28:07.903Z,-4.21
2023-12-04T05:32:11.382Z,-4.18
2023-12-04T05:36:14.564Z,-4.13
2023-12-04T05:40:19.253Z,-4.10
2023-12-04T05:44:22.442Z,-4.06
2023-12-04T05:48:25.372Z,-4.06
2023-12-04T05:52:28.314Z,-4.03
2023-12-04T05:56:32.670Z,-3.98
2023-12-04T06:00:35.622Z,-3.99
2023-12-04T06:04:38.568Z,-3.98
2023-12-04T06:08:41.697Z,-3.95
2023-12-04T06:12:46.030Z,-3.92
2023-12-04T06:16:49.219Z,-3.98
2023-12-04T06:20:52.109Z,-4.06
2023-12-04T06:24:55.570Z,-4.09
2023-12-04T06:29:00.589Z,-4.11
2023-12-04T06:33:04.239Z,-4.12
2023-12-04T06:37:12.338Z,-4.07
2023-12-04T06:41:16.164Z,-4.01
2023-12-04T06:45:22.374Z,-3.98
2023-12-04T06:49:26.669Z,-3.98
2023-12-04T06:53:29.658Z,-3.97
2023-12-04T06:57:32.849Z,-3.94
2023-12-04T07:01:37.217Z,-3.93
2023-12-04T07:05:40.195Z,-3.91
2023-12-04T07:09:43.152Z,-3.90
2023-12-04T07:13:46.092Z,-3.86
2023-12-04T07:17:50.508Z,-3.86
2023-12-04T07:21:53.502Z,-3.94
2023-12-04T07:25:56.459Z,-3.94
2023-12-04T07:29:59.379Z,-3.95
2023-12-04T07:34:04.067Z,-3.85
2023-12-04T07:38:07.172Z,-3.73
2023-12-04T07:42:12.979Z,-3.63
2023-12-04T07:46:17.232Z,-3.64
2023-12-04T07:50:21.599Z,-3.59
2023-12-04T07:54:27.166Z,-3.58
2023-12-04T07:58:30.177Z,-3.62
2023-12-04T08:02:33.161Z,-3.59
2023-12-04T08:06:37.591Z,-3.59
2023-12-04T08:10:40.801Z,-3.54
2023-12-04T08:14:43.750Z,-3.46
2023-12-04T08:18:46.947Z,-3.48
2023-12-04T08:22:51.317Z,-3.50
2023-12-04T08:26:54.321Z,-3.58
2023-12-04T08:30:57.227Z,-3.56
2023-12-04T08:35:00.279Z,-3.54
2023-12-04T08:39:05.275Z,-3.56
2023-12-04T08:43:09.499Z,-3.55
2023-12-04T08:47:13.195Z,-3.46
2023-12-04T08:51:19.437Z,-3.37
2023-12-04T08:55:23.781Z,-3.34
2023-12-04T08:59:26.883Z,-3.30
2023-12-04T09:03:32.598Z,-3.26
2023-12-04T09:11:45.576Z,-3.31
2023-12-04T09:15:48.610Z,-3.29
2023-12-04T09:19:51.638Z,-3.19
2023-12-04T09:23:54.728Z,-3.12
2023-12-04T09:27:59.055Z,-3.04
2023-12-04T09:32:02.310Z,-2.98
2023-12-04T09:36:07.894Z,-2.90
2023-12-04T09:40:12.508Z,-2.81
2023-12-04T09:44:17.639Z,-2.73
2023-12-04T09:48:21.324Z,-2.67
2023-12-04T09:52:24.800Z,-2.66
2023-12-04T09:56:29.058Z,-2.61
2023-12-04T10:00:34.840Z,-2.57
2023-12-04T10:04:39.203Z,-2.58
2023-12-04T10:08:42.158Z,-2.70
2023-12-04T10:12:46.025Z,-2.76
2023-12-04T10:16:51.300Z,-2.77
2023-12-04T10:20:55.710Z,-2.76
2023-12-04T10:24:58.998Z,-2.69
2023-12-04T10:29:03.070Z,-2.62
2023-12-04T10:33:08.662Z,-2.57
2023-12-04T10:37:12.522Z,-2.56
2023-12-04T10:41:15.910Z,-2.57
2023-12-04T10:45:23.251Z,-2.58
2023-12-04T10:49:28.995Z,-2.58
2023-12-04T10:53:32.080Z,-2.61
2023-12-04T10:57:39.450Z,-2.69
2023-12-04T11:01:46.331Z,-2.70
2023-12-04T11:05:56.769Z,-2.69
2023-12-04T11:10:01.751Z,-2.70
2023-12-04T11:14:07.735Z,-2.74
2023-12-04T11:18:13.883Z,-2.76
2023-12-04T11:22:21.450Z,-2.69
2023-12-04T11:26:26.156Z,-2.69
2023-12-04T11:30:30.408Z,-2.68
2023-12-04T11:34:34.076Z,-2.67
2023-12-04T11:38:38.896Z,-2.61
2023-12-04T11:42:41.874Z,-2.56
2023-12-04T11:47:06.384Z,-2.51
2023-12-04T11:51:11.296Z,-2.46
2023-12-04T11:55:18.826Z,-2.43
2023-12-04T11:59:23.037Z,-2.37
2023-12-04T12:03:27.669Z,-2.35
2023-12-04T12:07:31.348Z,-2.33
2023-12-04T12:11:36.177Z,-2.32
2023-12-04T12:15:39.893Z,-2.34
2023-12-04T12:19:43.001Z,-2.30
2023-12-04T12:23:46.340Z,-2.26
2023-12-04T12:27:50.670Z,-2.22
2023-12-04T12:31:53.906Z,-2.21
2023-12-04T12:36:02.917Z,-2.20
2023-12-04T12:40:12.607Z,-2.21
2023-12-04T12:44:17.353Z,-2.21
2023-12-04T12:48:20.864Z,-2.23
2023-12-04T12:52:23.902Z,-2.27
2023-12-04T12:56:27.377Z,-2.27
2023-12-04T13:00:31.783Z,-2.27
2023-12-04T13:04:38.445Z,-2.19
2023-12-04T13:08:41.975Z,-2.14
2023-12-04T13:12:45.466Z,-2.10
2023-12-04T13:16:50.990Z,-2.03
2023-12-04T13:20:53.931Z,-1.98
2023-12-04T13:24:58.396Z,-1.92
2023-12-04T13:29:01.305Z,-1.87
2023-12-04T13:33:07.319Z,-1.86
2023-12-04T13:37:10.916Z,-1.86
2023-12-04T13:41:41.215Z,-1.84
2023-12-04T13:45:44.358Z,-1.85
2023-12-04T13:49:48.890Z,-1.91
2023-12-04T13:54:00.066Z,-1.92
2023-12-04T13:58:11.627Z,-1.88
2023-12-04T14:02:16.612Z,-1.81
2023-12-04T14:06:22.259Z,-1.75
2023-12-04T14:10:26.686Z,-1.72
2023-12-04T14:14:29.624Z,-1.72
2023-12-04T14:18:32.550Z,-1.75
2023-12-04T14:22:36.822Z,-1.77
2023-12-04T14:26:39.988Z,-1.81
2023-12-04T14:30:42.917Z,-1.82
2023-12-04T14:34:46.437Z,-1.81
2023-12-04T14:38:51.148Z,-1.77
2023-12-04T14:42:54.069Z,-1.74
2023-12-04T14:46:57.179Z,-1.72
2023-12-04T14:51:02.349Z,-1.69
2023-12-04T14:55:40.703Z,-1.68
2023-12-04T15:00:06.360Z,-1.68
2023-12-04T15:04:27.176Z,-1.65
2023-12-04T15:08:47.303Z,-1.63
2023-12-04T15:13:35.325Z,-1.61
2023-12-04T15:17:49.406Z,-1.59
2023-12-04T15:21:53.905Z,-1.55
2023-12-04T15:25:57.844Z,-1.51
2023-12-04T15:30:03.675Z,-1.50
2023-12-04T15:34:06.921Z,-1.46
2023-12-04T15:38:10.085Z,-1.45
2023-12-04T15:42:13.583Z,-1.44
2023-12-04T15:46:19.765Z,-1.44
2023-12-04T15:50:23.803Z,-1.41
2023-12-04T15:54:26.857Z,-1.40
2023-12-04T15:58:29.820Z,-1.39
2023-12-04T16:02:34.208Z,-1.39
2023-12-04T16:06:38.406Z,-1.36
2023-12-04T16:10:41.799Z,-1.33
2023-12-04T16:14:44.948Z,-1.28
2023-12-04T16:18:50.714Z,-1.28
2023-12-04T16:22:53.721Z,-1.27
2023-12-04T16:26:58.164Z,-1.26
2023-12-04T16:31:02.687Z,-1.22
2023-12-04T16:35:09.733Z,-1.19
2023-12-04T16:39:18.150Z,-1.18
2023-12-04T16:43:21.081Z,-1.17
2023-12-04T16:47:24.098Z,-1.15
2023-12-04T16:51:28.649Z,-1.10
2023-12-04T16:55:31.928Z,-1.11
2023-12-04T16:59:35.258Z,-1.11
2023-12-04T17:03:38.431Z,-1.08
2023-12-04T17:07:42.925Z,-1.08
2023-12-04T17:11:46.321Z,-1.05
2023-12-04T17:15:49.396Z,-1.04
2023-12-04T17:19:52.559Z,-1.06
2023-12-04T17:23:57.120Z,-1.05
2023-12-04T17:28:00.007Z,-1.06
2023-12-04T17:32:03.148Z,-1.08
2023-12-04T17:36:08.511Z,-1.07
2023-12-04T17:40:15.091Z,-1.05
2023-12-04T17:44:18.308Z,-1.01
2023-12-04T17:48:22.221Z,-1.00
2023-12-04T17:52:25.217Z,-0.95
2023-12-04T17:56:29.652Z,-0.91
2023-12-04T18:00:33.048Z,-0.89
2023-12-04T18:04:39.295Z,-0.83
2023-12-04T18:08:43.567Z,-0.81
2023-12-04T18:12:48.312Z,-0.77
2023-12-04T18:16:51.313Z,-0.72
2023-12-04T18:20:54.223Z,-0.69
2023-12-04T18:24:57.618Z,-0.65
2023-12-04T18:29:02.487Z,-0.63
2023-12-04T18:33:06.540Z,-0.58
2023-12-04T18:37:41.037Z,-0.54
2023-12-04T18:41:44.582Z,-0.53
2023-12-04T18:45:49.563Z,-0.48
2023-12-04T18:49:53.446Z,-0.47
2023-12-04T18:53:56.406Z,-0.44
2023-12-04T18:57:59.302Z,-0.42
2023-12-04T19:02:06.081Z,-0.42
2023-12-04T19:06:10.090Z,-0.43
2023-12-04T19:10:13.807Z,-0.44
2023-12-04T19:14:16.720Z,-0.45
2023-12-04T19:18:21.097Z,-0.44
2023-12-04T19:22:24.183Z,-0.41
2023-12-04T19:26:27.119Z,-0.40
2023-12-04T19:30:34.392Z,-0.39
2023-12-04T19:34:39.593Z,-0.38
2023-12-04T19:38:42.551Z,-0.36
2023-12-04T19:42:45.996Z,-0.31
2023-12-04T19:46:49.343Z,-0.29
2023-12-04T19:50:54.152Z,-0.25
2023-12-04T19:54:58.987Z,-0.22
2023-12-04T19:59:01.942Z,-0.19
2023-12-04T20:03:09.347Z,-0.17
2023-12-04T20:07:17.329Z,-0.15
2023-12-04T20:11:20.891Z,-0.10
2023-12-04T20:15:23.834Z,-0.07
2023-12-04T20:19:26.945Z,-0.05
2023-12-04T20:23:31.616Z,-0.01
2023-12-04T20:27:34.581Z,0.03
2023-12-04T20:31:37.552Z,0.07
2023-12-04T20:35:40.857Z,0.11
2023-12-04T20:39:45.797Z,0.16
2023-12-04T20:43:48.778Z,0.17
2023-12-04T20:47:51.808Z,0.20
2023-12-04T20:51:54.844Z,0.22
2023-12-04T20:55:59.243Z,0.25
2023-12-04T21:00:02.194Z,0.26
2023-12-04T21:04:05.410Z,0.28
2023-12-04T21:08:10.483Z,0.29
2023-12-04T21:12:15.203Z,0.28
2023-12-04T21:16:18.217Z,0.28
2023-12-04T21:20:21.310Z,0.27
2023-12-04T21:24:24.333Z,0.29
2023-12-04T21:28:28.691Z,0.29
2023-12-04T21:32:31.654Z,0.34
2023-12-04T21:36:34.938Z,0.34
2023-12-04T21:40:37.985Z,0.36
2023-12-04T21:44:42.601Z,0.39
2023-12-04T21:48:45.678Z,0.39
2023-12-04T21:52:48.782Z,0.41
2023-12-04T21:56:52.363Z,0.41
2023-12-04T22:00:56.717Z,0.44
2023-12-04T22:04:59.933Z,0.45
2023-12-04T22:09:03.816Z,0.47
2023-12-04T22:13:08.802Z,0.50
2023-12-04T22:17:13.341Z,0.51
2023-12-04T22:21:19.650Z,0.52
2023-12-04T22:25:22.705Z,0.52
2023-12-04T22:29:25.635Z,0.56
2023-12-04T22:33:29.962Z,0.53
2023-12-04T22:37:32.971Z,0.55
2023-12-04T22:41:36.109Z,0.57
2023-12-04T22:45:39.430Z,0.59
2023-12-04T22:49:44.153Z,0.63
2023-12-04T22:53:47.295Z,0.66
2023-12-04T22:57:50.263Z,0.68
2023-12-04T23:01:53.460Z,0.71
2023-12-04T23:05:57.839Z,0.71
2023-12-04T23:10:01.516Z,0.73
2023-12-04T23:14:06.175Z,0.72
2023-12-04T23:18:09.348Z,0.73
2023-12-04T23:22:13.754Z,0.74
2023-12-04T23:26:16.749Z,0.76
2023-12-04T23:30:20.039Z,0.79
2023-12-04T23:34:23.731Z,0.80
2023-12-04T23:38:28.291Z,0.84
2023-12-04T23:42:31.355Z,0.86
2023-12-04T23:46:34.423Z,0.85
2023-12-04T23:50:37.450Z,0.86
2023-12-04T23:54:41.947Z,0.81
2023-12-04T23:58:44.934Z,0.86
